1978 Severe Tropical Cyclone ALBY (1978086S14115)


IBTrACS version v04r00. Visit IBTrACS website for data access.
Please direct all questions to the IBTrACS Q and A forum

Storm track - Intensity - Wind Radii - Intensity Data - Source Data - All data

Summary Information

Storm ID 1978086S14115
Start Mar 27 00Z
Max Intensity 120 kt (Apr 2 00Z), 930 mb (Apr 2 00Z)
End Apr 5 00Z
ATCF IDs ,SH291978,SH301978
Track status Best track data.

Storm track plot

Map of storm track

Intensity plots

Map of storm track

Radial wind information

No radial wind information for this storm


Position and Intensity Table

BASIN ISO_TIME_________ NATURE LAT LON WMO WIND WMO PRES USA WIND BOM WIND BOM PRES DS824 WIND DS824 PRES TD9636 WIND NEUMANN WIND NEUMANN PRES
degrees north degrees east kts mb kts kts mb kts mb kts kts mb
SI 1978-03-27 00:00:00 TS -13.70 115.00 25 25 15 1006
SI 01:00:00 TS -13.73 114.98 20 1006 25 20 1006 25 15 1005
SI 03:00:00 TS -13.79 114.92 25 20 1006 25 17 1005
SI 04:00:00 TS -13.83 114.89 20 1006 25 20 1006 25 18 1005
SI 06:00:00 TS -13.89 114.84 25 20 1005 20 1005 25 20 1005
SI 07:00:00 TS -13.92 114.81 20 1005 25 20 1005 20 1004 25 20 1004
SI 09:00:00 TS -13.99 114.72 25 20 1005 20 1004 25 20 1004
SI 10:00:00 TS -14.02 114.67 20 1005 25 20 1005 20 1004 25 20 1004
SI 12:00:00 TS -14.09 114.53 25 23 1004 20 1004 25 20 1004
SI 13:00:00 TS -14.14 114.46 25 1004 25 25 1004 20 1004 25 20 1004
SI 15:00:00 TS -14.22 114.30 25 25 1004 20 1004 26 20 1004
SI 16:00:00 TS -14.27 114.22 25 1004 25 25 1004 20 1004 26 20 1004
SI 18:00:00 TS -14.38 114.04 25 25 1004 20 1004 27 20 1004
SI 19:00:00 TS -14.43 113.97 25 1004 25 25 1004 20 1003 27 20 1003
SI 21:00:00 TS -14.51 113.86 27 25 1003 22 1003 28 22 1003
SI 22:00:00 TS -14.55 113.81 25 1003 28 25 1003 23 1002 29 23 1002
SI 1978-03-28 00:00:00 TS -14.60 113.71 30 25 1002 25 1002 30 25 1002
SI 01:00:00 TS -14.62 113.64 25 1002 30 25 1002 25 1001 30 25 1001
SI 03:00:00 TS -14.66 113.50 30 25 1001 27 1001 30 27 1001
SI 04:00:00 TS -14.67 113.43 25 1001 30 25 1001 28 1000 30 28 1000
SI 06:00:00 TS -14.70 113.28 30 25 1000 30 1000 30 30 1000
SI 07:00:00 TS -14.72 113.21 25 1000 30 25 1000 30 999 30 30 999
SI 09:00:00 TS -14.78 113.06 30 28 998 32 999 30 32 999
SI 10:00:00 TS -14.82 112.99 30 998 30 30 998 33 998 30 33 998
SI 12:00:00 TS -14.89 112.83 30 30 998 35 998 30 35 998
SI 13:00:00 TS -14.94 112.76 30 998 30 30 998 35 997 30 35 997
SI 15:00:00 TS -15.03 112.62 30 30 998 35 997 31 35 997
SI 16:00:00 TS -15.09 112.55 30 998 30 30 998 35 997 31 35 997
SI 18:00:00 TS -15.22 112.44 30 30 997 35 997 32 35 997
SI 19:00:00 TS -15.30 112.38 30 997 30 30 997 35 997 32 35 997
SI 21:00:00 TS -15.47 112.30 32 30 997 35 997 33 35 997
SI 22:00:00 TS -15.57 112.27 30 997 33 30 997 35 997 34 35 997
SI 1978-03-29 00:00:00 TS -15.76 112.20 35 30 997 35 997 35 35 997
SI 01:00:00 TS -15.84 112.18 30 997 35 30 997 35 996 35 35 996
SI 03:00:00 TS -15.98 112.15 35 30 996 37 996 36 37 996
SI 04:00:00 TS -16.04 112.14 30 996 35 30 996 38 995 36 38 995
SI 06:00:00 TS -16.18 112.09 35 33 995 40 995 37 40 995
SI 07:00:00 TS -16.26 112.06 35 995 35 35 995 40 994 37 40 994
SI 09:00:00 TS -16.43 112.00 37 35 995 40 994 38 40 994
SI 10:00:00 TS -16.51 111.97 35 995 38 35 995 40 994 39 40 994
SI 12:00:00 TS -16.67 111.91 40 38 994 40 994 40 40 994
SI 13:00:00 TS -16.75 111.88 40 994 40 40 994 40 993 40 40 993
SI 15:00:00 TS -16.90 111.83 40 40 993 42 993 41 42 993
SI 16:00:00 TS -16.97 111.80 40 993 40 40 993 43 992 41 43 992
SI 18:00:00 TS -17.13 111.75 40 43 992 45 992 42 45 992
SI 19:00:00 TS -17.21 111.72 45 992 40 45 992 45 991 42 45 991
SI 21:00:00 TS -17.36 111.68 42 48 991 45 991 43 45 991
SI 22:00:00 TS -17.43 111.66 50 991 43 50 991 45 990 44 45 990
SI 1978-03-30 00:00:00 TS -17.57 111.61 45 50 990 45 990 45 45 990
SI 01:00:00 TS -17.64 111.58 50 990 46 50 990 46 989 46 46 989
SI 03:00:00 TS -17.78 111.51 50 50 987 50 987 50 50 987
SI 04:00:00 TS -17.84 111.48 50 987 51 50 987 51 986 51 51 986
SI 06:00:00 TS -17.97 111.41 55 50 984 55 984 55 55 984
SI 07:00:00 TS -18.03 111.37 50 984 56 50 984 55 983 56 55 983
SI 09:00:00 TS -18.15 111.29 60 50 982 57 982 60 57 982
SI 10:00:00 TS -18.20 111.25 50 982 61 50 982 58 981 61 58 981
SI 12:00:00 TS -18.30 111.13 65 53 980 60 980 65 60 980
SI 13:00:00 TS -18.34 111.06 55 980 65 55 980 60 979 65 61 979
SI 15:00:00 TS -18.43 110.90 67 55 977 62 977 67 65 977
SI 16:00:00 TS -18.47 110.82 55 977 68 55 977 63 976 68 66 976
SI 18:00:00 TS -18.57 110.64 70 58 974 65 974 70 70 974
SI 19:00:00 TS -18.61 110.55 60 974 70 60 974 65 973 70 70 973
SI 21:00:00 TS -18.69 110.37 72 63 972 67 972 72 72 972
SI 22:00:00 TS -18.72 110.28 65 972 73 65 972 68 971 73 73 971
SI 1978-03-31 00:00:00 TS -18.79 110.13 75 68 970 70 970 75 75 970
SI 01:00:00 TS -18.83 110.06 70 970 76 70 970 71 969 76 75 969
SI 03:00:00 TS -18.90 109.92 80 73 967 75 967 78 77 967
SI 04:00:00 TS -18.93 109.86 75 967 81 75 967 76 966 79 78 966
SI 06:00:00 TS -18.99 109.73 85 78 965 80 965 82 80 965
SI 07:00:00 TS -19.02 109.66 80 965 85 80 965 80 964 83 80 964
SI 09:00:00 TS -19.09 109.53 87 80 962 82 962 86 82 962
SI 10:00:00 TS -19.12 109.47 80 962 88 80 962 83 961 87 83 961
SI 12:00:00 TS -19.19 109.33 90 83 960 85 960 90 85 960
SI 13:00:00 TS -19.23 109.25 85 960 90 85 960 85 959 90 86 959
SI 15:00:00 TS -19.32 109.09 92 88 957 87 957 92 90 957
SI 16:00:00 TS -19.36 109.01 90 957 93 90 957 88 956 93 91 956
SI 18:00:00 TS -19.47 108.83 95 90 955 90 955 95 95 955
SI 19:00:00 TS -19.52 108.75 90 955 95 90 955 90 954 95 95 954
SI 21:00:00 TS -19.64 108.59 97 90 952 92 952 97 97 952
SI 22:00:00 TS -19.70 108.51 90 952 98 90 952 93 951 98 98 951
SI 1978-04-01 00:00:00 TS -19.83 108.34 100 90 950 95 950 100 100 950
SI 01:00:00 TS -19.89 108.24 90 950 100 90 950 95 949 100 100 949
SI 03:00:00 TS -20.02 108.01 102 93 947 97 947 102 102 947
SI 04:00:00 TS -20.08 107.89 95 947 103 95 947 98 946 103 103 946
SI 06:00:00 TS -20.19 107.65 105 95 945 100 945 105 105 945
SI 07:00:00 TS -20.24 107.53 95 945 105 95 945 100 944 105 105 944
SI 09:00:00 TS -20.36 107.29 107 95 943 102 942 107 107 942
SI 10:00:00 TS -20.43 107.16 95 943 108 95 943 103 941 108 108 941
SI 12:00:00 TS -20.56 106.88 110 98 940 105 940 110 110 940
SI 13:00:00 TS -20.63 106.75 100 940 110 100 940 105 939 110 110 939
SI 15:00:00 TS -20.76 106.52 112 100 937 107 937 111 112 937
SI 16:00:00 TS -20.82 106.42 100 937 113 100 937 108 936 111 113 936
SI 18:00:00 TS -20.97 106.24 115 103 934 110 934 112 115 934
SI 19:00:00 TS -21.04 106.16 105 934 115 105 934 110 933 112 115 933
SI 21:00:00 TS -21.18 106.03 115 108 932 112 932 113 117 932
SI 22:00:00 TS -21.25 105.98 110 932 115 110 932 113 931 114 118 931
SI 1978-04-02 00:00:00 TS -21.37 105.90 115 110 930 115 930 115 120 930
SI 01:00:00 TS -21.43 105.88 110 930 115 110 930 114 930 115 120 930
SI 03:00:00 TS -21.52 105.84 115 110 930 112 931 115 120 931
SI 04:00:00 TS -21.56 105.83 110 931 115 110 931 111 931 115 120 931
SI 06:00:00 TS -21.66 105.84 115 110 931 110 932 115 120 932
SI 07:00:00 TS -21.71 105.85 110 932 115 110 932 110 932 115 119 932
SI 09:00:00 TS -21.79 105.90 115 110 932 110 933 115 117 933
SI 10:00:00 TS -21.84 105.93 110 933 115 110 933 110 933 115 116 933
SI 12:00:00 TS -21.97 105.99 115 106 934 110 935 115 115 935
SI 13:00:00 TS -22.05 106.02 105 935 115 105 935 109 935 114 115 935
SI 15:00:00 TS -22.22 106.09 115 101 935 107 936 113 115 936
SI 16:00:00 TS -22.32 106.12 100 936 115 100 936 106 936 113 115 936
SI 18:00:00 TS -22.57 106.18 115 100 936 105 937 112 115 937
SI 19:00:00 TS -22.71 106.22 100 937 114 100 937 105 937 112 114 937
SI 21:00:00 TS -23.02 106.28 112 100 937 105 938 111 112 938
SI 22:00:00 TS -23.19 106.32 100 938 111 100 938 105 938 110 111 938
SI 1978-04-03 00:00:00 TS -23.54 106.39 110 100 939 105 940 110 110 940
SI 01:00:00 TS -23.71 106.43 100 940 109 100 940 104 940 109 109 940
SI 03:00:00 TS -24.07 106.52 107 100 941 102 942 107 107 942
SI 04:00:00 TS -24.26 106.58 100 942 106 100 942 101 942 106 106 942
SI 06:00:00 TS -24.67 106.71 105 96 943 100 944 105 105 944
SI 07:00:00 TS -24.89 106.78 95 944 104 95 944 99 944 104 104 944
SI 09:00:00 TS -25.35 106.94 102 91 946 97 947 102 102 947
SI 10:00:00 TS -25.59 107.03 90 947 101 90 947 96 947 101 101 947
SI 12:00:00 TS -26.11 107.26 100 90 949 95 950 100 100 950
SI 13:00:00 TS -26.35 107.38 90 950 99 90 950 94 950 99 99 950
SI 15:00:00 TS -26.84 107.64 97 90 951 92 952 97 97 952
SI 16:00:00 TS -27.11 107.79 90 952 96 90 952 91 953 96 96 953
SI 18:00:00 TS -27.69 108.13 95 86 954 90 955 95 95 955
SI 19:00:00 TS -28.00 108.31 85 955 94 85 955 89 955 94 93 955
SI 21:00:00 TS -28.67 108.73 92 85 956 87 957 92 90 957
SI 22:00:00 TS -29.02 108.97 85 957 91 85 957 86 958 91 88 958
SI 1978-04-04 00:00:00 TS -29.77 109.50 90 85 959 85 960 90 85 960
SI 01:00:00 TS -30.13 109.78 85 960 89 85 960 83 960 88 84 960
SI 03:00:00 TS -30.87 110.39 87 85 961 81 962 86 82 962
SI 04:00:00 TS -31.24 110.72 85 962 86 85 962 80 963 85 81 963
SI 06:00:00 TS -32.02 111.48 85 85 85 964 77 965 82 80 965
SI 07:00:00 TS -32.50 111.96 80 965 83 80 965 76 965 81 79 965
SI 09:00:00 TS -33.43 112.89 80 80 966 73 967 78 77 967
SI 10:00:00 TS -33.88 113.36 80 967 78 80 967 72 968 77 76 968
SI 12:00:00 TS -34.89 114.59 75 69 969 70 970 75 75 970
SI 13:00:00 TS -35.34 115.31 65 970 65 970 66 973 70 973
SI 15:00:00 TS -36.34 117.14 58 975 60 979 62 979
SI 16:00:00 TS -36.85 118.15 55 978 55 978 56 982 58 982
SI 18:00:00 TS -37.90 120.16 48 985 50 989 50 989
SI 19:00:00 TS -38.52 121.25 45 989 45 989 46 990
SI 21:00:00 TS -39.72 123.15 41 996 40 994
SI 22:00:00 TS -40.37 124.13 40 1000 40 1000 36 996
SI 1978-04-05 00:00:00 TS -41.80 126.30 30 1000

Source Information

Agency Information
USA bsh291978.txt::bsh301978.txt
TOKYO
CMA
HKO
NEWDELHI
REUNION
BOM IDCKMSTM0S.csv:Line=11285:ALBY
NADI
WELLINGTON
DS824 aus_area.dat:575:ALBY
TD9636 cons_worldwide_trop_cyclone_18710101-19891231-006:Line=10640
TD9635
NEUMANN tracks.sh:Storm=532:ALBY:BSH9978:BM490
MLC

All available IBTrACS Data

SEASON BASIN SUBBASIN ISO_TIME_________ NATURE LAT LON WMO WIND WMO PRES WMO AGENCY DIST2LAND LANDFALL IFLAG USA AGENCY USA ATCF_ID USA LAT USA LON USA WIND USA SSHS BOM LAT BOM LON BOM TYPE BOM WIND BOM PRES BOM TNUM BOM CI DS824 LAT DS824 LON DS824 STAGE DS824 WIND DS824 PRES TD9636 LAT TD9636 LON TD9636 STAGE TD9636 WIND NEUMANN LAT NEUMANN LON NEUMANN CLASS NEUMANN WIND NEUMANN PRES STORM SPEED STORM DIR
Year degrees north degrees east kts mb km km degrees north degrees east kts 1 degrees north degrees east kts mb 1 1 degrees north degrees east kts mb degrees north degrees east kts degrees north degrees east kts mb kts degrees
1978 SI WA 1978-03-27 00:00:00 TS -13.70 115.00 548 548 O_________O_O_ jtwc_sh SH291978 -13.70 115.00 25 -1 -13.70 115.00 1 25 -13.70 115.00 TC 15 1006 2 222
1978 SI WA 01:00:00 TS -13.73 114.98 20 1006 bom 548 548 P_____O___P_P_ SH291978 -13.73 114.97 25 -1 -13.70 115.00 20 20 1006 1.00 -13.73 114.96 1 25 -13.74 114.99 TC 15 1005 2 221
1978 SI WA 03:00:00 TS -13.79 114.92 560 560 P_____P___P_P_ SH291978 -13.80 114.91 25 -1 -13.77 114.92 20 20 1006 -13.79 114.89 1 25 -13.80 114.98 TC 17 1005 3 219
1978 SI WA 04:00:00 TS -13.83 114.89 20 1006 bom 560 560 P_____O___P_P_ SH291978 -13.83 114.87 25 -1 -13.80 114.90 20 20 1006 1.00 -13.82 114.86 1 25 -13.84 114.96 TC 18 1005 3 220
1978 SI WA 06:00:00 TS -13.89 114.84 571 571 O_____P__OP_O_ jtwc_sh SH291978 -13.90 114.80 25 -1 -13.87 114.90 20 20 1005 -13.90 114.90 TC 20 1005 -13.89 114.78 1 25 -13.90 114.90 TC 20 1005 3 220
1978 SI WA 07:00:00 TS -13.92 114.81 20 1005 bom 571 571 P_____O__PP_P_ SH291978 -13.93 114.76 25 -1 -13.90 114.90 20 20 1005 1.00 -13.93 114.87 TC 20 1004 -13.92 114.74 1 25 -13.93 114.86 TC 20 1004 3 229
1978 SI WA 09:00:00 TS -13.99 114.72 582 582 P_____P__PP_P_ SH291978 -14.00 114.66 25 -1 -13.97 114.85 20 20 1005 -13.99 114.79 TC 20 1004 -13.99 114.65 1 25 -13.98 114.74 TC 20 1004 3 233
1978 SI WA 10:00:00 TS -14.02 114.67 20 1005 bom 582 582 P_____O__PP_P_ SH291978 -14.03 114.61 25 -1 -14.00 114.80 20 20 1005 1.00 -14.02 114.74 TC 20 1004 -14.02 114.60 1 25 -14.02 114.67 TC 20 1004 4 240
1978 SI WA 12:00:00 TS -14.09 114.53 593 593 O_____P__OO_O_ jtwc_sh SH291978 -14.10 114.50 25 -1 -14.07 114.60 20 23 1004 -14.10 114.60 TC 20 1004 -14.10 114.50 1 25 -14.10 114.50 TC 20 1004 5 241
1978 SI WA 13:00:00 TS -14.14 114.46 25 1004 bom 593 593 P_____O__PP_P_ SH291978 -14.13 114.44 25 -1 -14.10 114.50 20 25 1004 1.50 -14.15 114.51 TC 20 1004 -14.14 114.44 1 25 -14.16 114.40 TC 20 1004 5 241
1978 SI WA 15:00:00 TS -14.22 114.30 605 605 P_____P__PP_P_ SH291978 -14.19 114.31 25 -1 -14.15 114.38 20 25 1004 -14.25 114.30 TC 20 1004 -14.23 114.33 1 26 -14.31 114.19 TC 20 1004 5 240
1978 SI WA 16:00:00 TS -14.27 114.22 25 1004 bom 617 617 P_____O__PP_P_ SH291978 -14.23 114.24 25 -1 -14.20 114.30 20 25 1004 1.50 -14.30 114.19 TC 20 1004 -14.27 114.26 1 26 -14.38 114.08 TC 20 1004 6 238
1978 SI WA 18:00:00 TS -14.38 114.04 630 630 O_____P__OP_O_ jtwc_sh SH291978 -14.30 114.10 25 -1 -14.40 114.02 20 25 1004 -14.40 114.00 TC 20 1004 -14.36 114.13 1 27 -14.50 113.90 TC 20 1004 6 236
1978 SI WA 19:00:00 TS -14.43 113.97 25 1004 bom 630 630 P_____O__PP_P_ SH291978 -14.35 114.04 25 -1 -14.50 113.90 20 25 1004 1.50 -14.44 113.93 TC 20 1003 -14.40 114.06 1 27 -14.53 113.85 TC 20 1003 4 233
1978 SI WA 21:00:00 TS -14.51 113.86 642 642 P_____P__PP_P_ SH291978 -14.46 113.91 27 -1 -14.59 113.82 20 25 1003 -14.51 113.83 TC 22 1003 -14.49 113.92 1 28 -14.57 113.78 TC 22 1003 4 233
1978 SI WA 22:00:00 TS -14.55 113.81 25 1003 bom 644 644 P_____O__PP_P_ SH291978 -14.51 113.84 28 -1 -14.60 113.80 20 25 1003 1.50 -14.55 113.78 TC 23 1002 -14.53 113.85 1 29 -14.58 113.76 TC 23 1002 3 240
1978 SI WA 1978-03-28 00:00:00 TS -14.60 113.71 656 656 O_____P__OO_O_ jtwc_sh SH291978 -14.60 113.70 30 -1 -14.60 113.74 20 25 1002 -14.60 113.70 TC 25 1002 -14.60 113.70 1 30 -14.60 113.70 TC 25 1002 4 246
1978 SI WA 01:00:00 TS -14.62 113.64 25 1002 bom 658 658 P_____O__PP_P_ SH291978 -14.63 113.62 30 -1 -14.60 113.70 20 25 1002 1.50 1.50 -14.62 113.66 TC 25 1001 -14.62 113.62 1 30 -14.61 113.65 TC 25 1001 4 253
1978 SI WA 03:00:00 TS -14.66 113.50 671 671 P_____P__PP_P_ SH291978 -14.66 113.45 30 -1 -14.67 113.57 20 25 1001 -14.65 113.56 TC 27 1001 -14.67 113.47 1 30 -14.64 113.52 TC 27 1001 4 255
1978 SI WA 04:00:00 TS -14.67 113.43 25 1001 bom 673 673 P_____O__PP_P_ SH291978 -14.67 113.36 30 -1 -14.70 113.50 20 25 1001 2.00 -14.66 113.52 TC 28 1000 -14.68 113.39 1 30 -14.66 113.45 TC 28 1000 4 258
1978 SI WA 06:00:00 TS -14.70 113.28 675 675 O_____P__OP_O_ jtwc_sh SH291978 -14.70 113.20 30 -1 -14.70 113.37 20 25 1000 -14.70 113.40 TC 30 1000 -14.72 113.23 1 30 -14.70 113.30 TC 30 1000 4 257
1978 SI WA 07:00:00 TS -14.72 113.21 25 1000 bom 678 678 P_____O__PP_P_ SH291978 -14.72 113.13 30 -1 -14.70 113.30 20 25 1000 2.00 -14.73 113.33 TC 30 999 -14.74 113.16 1 30 -14.73 113.22 TC 30 999 5 250
1978 SI WA 09:00:00 TS -14.78 113.06 691 691 P_____P__PP_P_ SH291978 -14.78 112.99 30 -1 -14.76 113.17 20 28 998 -14.79 113.16 TC 32 999 -14.79 113.01 1 30 -14.79 113.05 TC 32 999 5 246
1978 SI WA 10:00:00 TS -14.82 112.99 30 998 bom 694 694 P_____O__PP_P_ SH291978 -14.81 112.93 30 -1 -14.80 113.10 20 30 998 2.50 -14.83 113.07 TC 33 998 -14.82 112.94 1 30 -14.82 112.96 TC 33 998 5 243
1978 SI WA 12:00:00 TS -14.89 112.83 710 710 O_____P__OO_O_ jtwc_sh SH291978 -14.90 112.80 30 -1 -14.87 112.90 20 30 998 -14.90 112.90 TC 35 998 -14.90 112.80 1 30 -14.90 112.80 TC 35 998 5 241
1978 SI WA 13:00:00 TS -14.94 112.76 30 998 bom 710 710 P_____O__PP_P_ SH291978 -14.95 112.73 30 -1 -14.90 112.80 20 30 998 2.50 -14.92 112.82 TC 35 997 -14.95 112.74 1 30 -14.94 112.72 TC 35 997 5 236
1978 SI WA 15:00:00 TS -15.03 112.62 727 727 P_____P__PP_P_ SH291978 -15.08 112.59 30 -1 -14.96 112.66 20 30 998 -14.97 112.68 TC 35 997 -15.08 112.62 1 31 -15.02 112.58 TC 35 997 5 232
1978 SI WA 16:00:00 TS -15.09 112.55 30 998 bom 738 738 P_____O__PP_P_ SH291978 -15.15 112.52 30 -1 -15.00 112.60 20 30 998 2.50 -15.00 112.62 TC 35 997 -15.15 112.56 1 31 -15.07 112.51 TC 35 997 5 223
1978 SI WA 18:00:00 TS -15.22 112.44 753 744 O_____P__OP_O_ jtwc_sh SH291978 -15.30 112.40 30 -1 -15.13 112.46 20 30 997 -15.10 112.50 TC 35 997 -15.30 112.46 1 32 -15.20 112.40 TC 35 997 5 217
1978 SI WA 19:00:00 TS -15.30 112.38 30 997 bom 744 731 P_____O__PP_P_ SH291978 -15.38 112.35 30 -1 -15.20 112.40 20 30 997 2.50 -15.18 112.44 TC 35 997 -15.39 112.41 1 32 -15.29 112.35 TC 35 997 6 208
1978 SI WA 21:00:00 TS -15.47 112.30 731 721 P_____P__PP_P_ SH291978 -15.55 112.28 32 -1 -15.32 112.33 20 30 997 -15.38 112.33 TC 35 997 -15.55 112.32 1 33 -15.49 112.28 TC 35 997 6 202
1978 SI WA 22:00:00 TS -15.57 112.27 30 997 bom 721 718 P_____O__PP_P_ SH291978 -15.64 112.25 33 -1 -15.40 112.30 20 30 997 2.50 -15.49 112.28 TC 35 997 -15.63 112.28 1 34 -15.60 112.25 TC 35 997 6 199
1978 SI WA 1978-03-29 00:00:00 TS -15.76 112.20 708 708 O_____P__OO_O_ jtwc_sh SH291978 -15.80 112.20 35 0 -15.67 112.23 20 30 997 -15.70 112.20 TC 35 997 -15.80 112.20 2 35 -15.80 112.20 TC 35 997 6 195
1978 SI WA 01:00:00 TS -15.84 112.18 30 997 bom 708 686 P_____O__PP_P_ SH291978 -15.87 112.18 35 0 -15.80 112.20 20 30 997 2.50 2.50 -15.78 112.17 TC 35 996 -15.87 112.16 2 35 -15.88 112.18 TC 35 996 5 196
1978 SI WA 03:00:00 TS -15.98 112.15 689 689 P_____P__PP_P_ SH291978 -16.00 112.15 35 0 -15.94 112.20 20 30 996 -15.91 112.14 TC 37 996 -16.02 112.10 2 36 -16.01 112.15 TC 37 996 4 193
1978 SI WA 04:00:00 TS -16.04 112.14 30 996 bom 689 668 P_____O__PP_P_ SH291978 -16.06 112.14 35 0 -16.00 112.20 20 30 996 2.50 -15.97 112.13 TC 38 995 -16.10 112.08 2 36 -16.07 112.14 TC 38 995 4 195
1978 SI WA 06:00:00 TS -16.18 112.09 668 668 O_____P__OP_O_ jtwc_sh SH291978 -16.20 112.10 35 0 -16.13 112.14 20 33 995 -16.10 112.10 TC 40 995 -16.25 112.03 2 37 -16.20 112.10 TC 40 995 4 199
1978 SI WA 07:00:00 TS -16.26 112.06 35 995 bom 657 650 P_____O__PP_P_ SH291978 -16.28 112.07 35 0 -16.20 112.10 30 35 995 3.00 -16.18 112.07 TC 40 994 -16.32 112.00 2 37 -16.28 112.07 TC 40 994 5 199
1978 SI WA 09:00:00 TS -16.43 112.00 650 639 P_____P__PP_P_ SH291978 -16.45 112.00 37 0 -16.40 112.03 30 35 995 -16.34 112.01 TC 40 994 -16.47 111.96 2 38 -16.44 112.01 TC 40 994 5 199
1978 SI WA 10:00:00 TS -16.51 111.97 35 995 bom 639 621 P_____O__PP_P_ SH291978 -16.54 111.96 38 0 -16.50 112.00 30 35 995 3.00 -16.43 111.97 TC 40 994 -16.55 111.94 2 39 -16.53 111.97 TC 40 994 5 200
1978 SI WA 12:00:00 TS -16.67 111.91 621 621 O_____P__OO_O_ jtwc_sh SH291978 -16.70 111.90 40 0 -16.64 111.93 30 38 994 -16.60 111.90 TC 40 994 -16.70 111.90 2 40 -16.70 111.90 TC 40 994 5 200
1978 SI WA 13:00:00 TS -16.75 111.88 40 994 bom 621 604 P_____O__PP_P_ SH291978 -16.77 111.88 40 0 -16.70 111.90 30 40 994 3.00 -16.69 111.86 TC 40 993 -16.78 111.88 2 40 -16.79 111.86 TC 40 993 5 200
1978 SI WA 15:00:00 TS -16.90 111.83 604 594 P_____P__PP_P_ SH291978 -16.90 111.85 40 0 -16.83 111.83 30 40 993 -16.86 111.79 TC 42 993 -16.93 111.83 2 41 -16.96 111.79 TC 42 993 5 201
1978 SI WA 16:00:00 TS -16.97 111.80 40 993 bom 594 584 P_____O__PP_P_ SH291978 -16.96 111.84 40 0 -16.90 111.80 30 40 993 3.00 -16.94 111.76 TC 43 992 -17.01 111.81 2 41 -17.04 111.76 TC 43 992 5 195
1978 SI WA 18:00:00 TS -17.13 111.75 588 578 O_____P__OP_O_ jtwc_sh SH291978 -17.10 111.80 40 0 -17.10 111.73 30 43 992 -17.10 111.70 TC 45 992 -17.16 111.76 2 42 -17.20 111.70 TC 45 992 5 196
1978 SI WA 19:00:00 TS -17.21 111.72 45 992 bom 578 568 P_____O__PP_P_ SH291978 -17.18 111.77 40 0 -17.20 111.70 30 45 992 3.00 -17.17 111.68 TC 45 991 -17.24 111.74 2 42 -17.27 111.68 TC 45 991 5 195
1978 SI WA 21:00:00 TS -17.36 111.68 557 557 P_____P__PP_P_ SH291978 -17.35 111.71 42 0 -17.34 111.70 30 48 991 -17.31 111.65 TC 45 991 -17.39 111.69 2 43 -17.41 111.65 TC 45 991 5 193
1978 SI WA 22:00:00 TS -17.43 111.66 50 991 bom 557 542 P_____O__PP_P_ SH291978 -17.44 111.67 43 0 -17.40 111.70 30 50 991 3.50 -17.37 111.64 TC 45 990 -17.46 111.66 2 44 -17.47 111.64 TC 45 990 5 201
1978 SI WA 1978-03-30 00:00:00 TS -17.57 111.61 542 542 O_____P__OO_O_ jtwc_sh SH291978 -17.60 111.60 45 0 -17.53 111.64 30 50 990 -17.50 111.60 TC 45 990 -17.60 111.60 2 45 -17.60 111.60 TC 45 990 5 201
1978 SI WA 01:00:00 TS -17.64 111.58 50 990 bom 542 527 P_____O__PP_P_ SH291978 -17.67 111.57 46 0 -17.60 111.60 30 50 990 3.50 3.50 -17.57 111.57 TC 46 989 -17.67 111.57 2 46 -17.67 111.58 TC 46 989 5 203
1978 SI WA 03:00:00 TS -17.78 111.51 527 527 P_____P__PP_P_ SH291978 -17.81 111.51 50 0 -17.73 111.53 30 50 987 -17.70 111.51 TC 50 987 -17.80 111.51 2 50 -17.81 111.51 TC 50 987 4 204
1978 SI WA 04:00:00 TS -17.84 111.48 50 987 bom 527 513 P_____O__PP_P_ SH291978 -17.88 111.47 51 0 -17.80 111.50 30 50 987 3.50 -17.77 111.47 TC 51 986 -17.86 111.48 2 51 -17.87 111.48 TC 51 986 4 208
1978 SI WA 06:00:00 TS -17.97 111.41 513 513 O_____P__OP_O_ jtwc_sh SH291978 -18.00 111.40 55 0 -17.93 111.43 30 50 984 -17.90 111.40 TC 55 984 -17.98 111.40 2 55 -18.00 111.40 TC 55 984 4 209
1978 SI WA 07:00:00 TS -18.03 111.37 50 984 bom 513 504 P_____O__PP_P_ SH291978 -18.06 111.36 56 0 -18.00 111.40 30 50 984 3.50 -17.97 111.37 TC 55 983 -18.04 111.36 2 56 -18.06 111.36 TC 55 983 4 212
1978 SI WA 09:00:00 TS -18.15 111.29 510 500 P_____P__PP_P_ SH291978 -18.16 111.27 60 0 -18.14 111.34 30 50 982 -18.11 111.32 TC 57 982 -18.15 111.27 2 60 -18.16 111.27 TC 57 982 4 216
1978 SI WA 10:00:00 TS -18.20 111.25 50 982 bom 506 497 P_____O__PP_P_ SH291978 -18.21 111.22 61 0 -18.20 111.30 30 50 982 3.50 -18.18 111.29 TC 58 981 -18.20 111.22 2 61 -18.21 111.22 TC 58 981 4 225
1978 SI WA 12:00:00 TS -18.30 111.13 503 503 O_____P__OO_O_ jtwc_sh SH291978 -18.30 111.10 65 1 -18.27 111.17 30 53 980 -18.30 111.20 TC 60 980 -18.30 111.10 4 65 -18.30 111.10 TC 60 980 5 231
1978 SI WA 13:00:00 TS -18.34 111.06 55 980 bom 503 501 P_____O__PP_P_ SH291978 -18.35 111.03 65 1 -18.30 111.10 30 55 980 4.00 -18.34 111.13 TC 60 979 -18.35 111.03 4 65 -18.35 111.03 TC 61 979 5 238
1978 SI WA 15:00:00 TS -18.43 110.90 507 499 P_____P__PP_P_ SH291978 -18.46 110.87 67 1 -18.36 110.97 30 55 977 -18.41 110.97 TC 62 977 -18.44 110.88 4 67 -18.46 110.87 TC 65 977 5 240
1978 SI WA 16:00:00 TS -18.47 110.82 55 977 bom 506 504 P_____O__PP_P_ SH291978 -18.51 110.78 68 1 -18.40 110.90 30 55 977 4.00 -18.44 110.88 TC 63 976 -18.49 110.80 4 68 -18.51 110.78 TC 66 976 6 241
1978 SI WA 18:00:00 TS -18.57 110.64 511 511 O_____P__OP_O_ jtwc_sh SH291978 -18.60 110.60 70 1 -18.54 110.71 30 58 974 -18.50 110.70 TC 65 974 -18.57 110.62 4 70 -18.60 110.60 TC 70 974 6 242
1978 SI WA 19:00:00 TS -18.61 110.55 60 974 bom 519 511 P_____O__PP_P_ SH291978 -18.64 110.51 70 1 -18.60 110.60 30 60 974 4.00 -18.55 110.61 TC 65 973 -18.61 110.53 4 70 -18.64 110.51 TC 70 973 6 244
1978 SI WA 21:00:00 TS -18.69 110.37 518 518 P_____P__PP_P_ SH291978 -18.71 110.34 72 1 -18.67 110.39 30 63 972 -18.65 110.44 TC 67 972 -18.69 110.36 4 72 -18.71 110.34 TC 72 972 5 246
1978 SI WA 22:00:00 TS -18.72 110.28 65 972 bom 526 526 P_____O__PP_P_ SH291978 -18.74 110.26 73 1 -18.70 110.30 40 65 972 4.50 -18.70 110.36 TC 68 971 -18.73 110.27 4 73 -18.74 110.26 TC 73 971 5 245
1978 SI WA 1978-03-31 00:00:00 TS -18.79 110.13 534 534 O_____P__OO_O_ jtwc_sh SH291978 -18.80 110.10 75 1 -18.77 110.16 40 68 970 -18.80 110.20 TC 70 970 -18.80 110.10 4 75 -18.80 110.10 TC 75 970 5 244
1978 SI WA 01:00:00 TS -18.83 110.06 70 970 bom 534 534 P_____O__PP_P_ SH291978 -18.83 110.03 76 1 -18.80 110.10 40 70 970 4.50 4.50 -18.84 110.13 TC 71 969 -18.83 110.03 4 76 -18.83 110.03 TC 75 969 4 243
1978 SI WA 03:00:00 TS -18.90 109.92 543 543 P_____P__PP_P_ SH291978 -18.90 109.89 80 1 -18.87 109.97 40 73 967 -18.91 109.99 TC 75 967 -18.90 109.89 4 78 -18.90 109.89 TC 77 967 4 242
1978 SI WA 04:00:00 TS -18.93 109.86 75 967 bom 543 543 P_____O__PP_P_ SH291978 -18.93 109.83 81 1 -18.90 109.90 40 75 967 4.50 -18.94 109.93 TC 76 966 -18.93 109.82 4 79 -18.93 109.83 TC 78 966 4 242
1978 SI WA 06:00:00 TS -18.99 109.73 552 552 O_____P__OP_O_ jtwc_sh SH291978 -19.00 109.70 85 2 -18.97 109.77 40 78 965 -19.00 109.80 TC 80 965 -18.99 109.69 4 82 -19.00 109.70 TC 80 965 4 242
1978 SI WA 07:00:00 TS -19.02 109.66 80 965 bom 552 552 P_____O__PP_P_ SH291978 -19.03 109.63 85 2 -19.00 109.70 40 80 965 5.00 -19.03 109.74 TC 80 964 -19.02 109.63 4 83 -19.03 109.64 TC 80 964 4 242
1978 SI WA 09:00:00 TS -19.09 109.53 563 563 P_____P__PP_P_ SH291978 -19.09 109.50 87 2 -19.07 109.57 40 80 962 -19.10 109.61 TC 82 962 -19.09 109.50 4 86 -19.09 109.51 TC 82 962 4 242
1978 SI WA 10:00:00 TS -19.12 109.47 80 962 bom 563 563 P_____O__PP_P_ SH291978 -19.13 109.43 88 2 -19.10 109.50 40 80 962 5.00 -19.13 109.55 TC 83 961 -19.12 109.43 4 87 -19.13 109.45 TC 83 961 4 241
1978 SI WA 12:00:00 TS -19.19 109.33 574 574 O_____P__OO_O_ jtwc_sh SH291978 -19.20 109.30 90 2 -19.17 109.37 40 83 960 -19.20 109.40 TC 85 960 -19.20 109.30 4 90 -19.20 109.30 TC 85 960 5 241
1978 SI WA 13:00:00 TS -19.23 109.25 85 960 bom 574 574 P_____O__PP_P_ SH291978 -19.24 109.24 90 2 -19.20 109.30 40 85 960 5.00 -19.23 109.31 TC 85 959 -19.24 109.24 4 90 -19.24 109.21 TC 86 959 5 241
1978 SI WA 15:00:00 TS -19.32 109.09 586 586 P_____P__PP_P_ SH291978 -19.34 109.11 92 2 -19.26 109.11 40 88 957 -19.29 109.11 TC 87 957 -19.33 109.11 4 92 -19.34 109.00 TC 90 957 5 241
1978 SI WA 16:00:00 TS -19.36 109.01 90 957 bom 590 590 P_____O__PP_P_ SH291978 -19.39 109.04 93 2 -19.30 109.00 40 90 957 5.50 -19.32 109.01 TC 88 956 -19.37 109.05 4 93 -19.39 108.90 TC 91 956 6 238
1978 SI WA 18:00:00 TS -19.47 108.83 603 603 O_____P__OP_O_ jtwc_sh SH291978 -19.50 108.90 95 2 -19.43 108.79 40 90 955 -19.40 108.80 TC 90 955 -19.47 108.91 4 95 -19.50 108.70 TC 95 955 6 236
1978 SI WA 19:00:00 TS -19.52 108.75 90 955 bom 603 603 P_____O__PP_P_ SH291978 -19.55 108.83 95 2 -19.50 108.70 40 90 955 5.50 -19.45 108.71 TC 90 954 -19.52 108.84 4 95 -19.56 108.63 TC 95 954 6 233
1978 SI WA 21:00:00 TS -19.64 108.59 617 611 P_____P__PP_P_ SH291978 -19.64 108.67 97 3 -19.63 108.56 40 90 952 -19.57 108.53 TC 92 952 -19.63 108.68 4 97 -19.70 108.51 TC 97 952 6 232
1978 SI WA 22:00:00 TS -19.70 108.51 90 952 bom 620 620 P_____O__PP_P_ SH291978 -19.69 108.59 98 3 -19.70 108.50 40 90 952 5.50 -19.64 108.44 TC 93 951 -19.68 108.59 4 98 -19.77 108.45 TC 98 951 6 231
1978 SI WA 1978-04-01 00:00:00 TS -19.83 108.34 632 626 O_____P__PO_O_ jtwc_sh SH291978 -19.80 108.40 100 3 -19.83 108.38 40 90 950 -19.78 108.27 TC 95 950 -19.80 108.40 4 100 -19.90 108.30 TC 100 950 6 233
1978 SI WA 01:00:00 TS -19.89 108.24 90 950 bom 635 635 P_____O__PP_P_ SH291978 -19.86 108.29 100 3 -19.90 108.30 40 90 950 5.50 5.50 -19.85 108.18 TC 95 949 -19.86 108.28 4 100 -19.95 108.20 TC 100 949 7 238
1978 SI WA 03:00:00 TS -20.02 108.01 648 648 P_____P__PP_P_ SH291978 -19.98 108.04 102 3 -20.04 108.04 40 93 947 -20.00 108.00 TC 97 947 -19.99 108.02 4 102 -20.05 107.98 TC 102 947 8 241
1978 SI WA 04:00:00 TS -20.08 107.89 95 947 bom 652 652 P_____O__PP_P_ SH291978 -20.05 107.90 103 3 -20.10 107.90 40 95 947 5.50 -20.07 107.90 TC 98 946 -20.05 107.88 4 103 -20.10 107.86 TC 103 946 8 244
1978 SI WA 06:00:00 TS -20.19 107.65 676 676 P_____P__OP_O_ SH291978 -20.18 107.62 105 3 -20.16 107.69 40 95 945 -20.20 107.70 TC 100 945 -20.19 107.60 4 105 -20.20 107.60 TC 105 945 7 244
1978 SI WA 07:00:00 TS -20.24 107.53 95 945 bom 685 681 P_____O__PP_P_ SH291978 -20.25 107.48 105 3 -20.20 107.60 40 95 945 5.50 -20.25 107.59 TC 100 944 -20.25 107.46 4 105 -20.26 107.47 TC 105 944 8 242
1978 SI WA 09:00:00 TS -20.36 107.29 696 696 P_____P__PP_P_ SH291978 -20.39 107.19 107 3 -20.33 107.42 40 95 943 -20.35 107.36 TC 102 942 -20.39 107.18 4 107 -20.39 107.19 TC 107 942 8 241
1978 SI WA 10:00:00 TS -20.43 107.16 95 943 bom 706 706 P_____O__PP_P_ SH291978 -20.46 107.05 108 3 -20.40 107.30 40 95 943 5.50 -20.40 107.24 TC 103 941 -20.46 107.05 4 108 -20.46 107.06 TC 108 941 9 242
1978 SI WA 12:00:00 TS -20.56 106.88 727 727 O_____P__OO_O_ jtwc_sh SH301978 -20.60 106.80 110 3 -20.54 106.96 40 98 940 -20.50 107.00 TC 105 940 -20.60 106.80 4 110 -20.60 106.80 TC 110 940 9 242
1978 SI WA 13:00:00 TS -20.63 106.75 100 940 bom 747 743 P_____O__PP_P_ SH301978 -20.67 106.68 110 3 -20.60 106.80 40 100 940 6.00 -20.56 106.88 TC 105 939 -20.67 106.69 4 110 -20.67 106.68 TC 110 939 8 240
1978 SI WA 15:00:00 TS -20.76 106.52 760 760 P_____P__PP_P_ SH301978 -20.80 106.47 112 3 -20.66 106.59 40 100 937 -20.69 106.63 TC 107 937 -20.81 106.48 4 111 -20.80 106.46 TC 112 937 7 238
1978 SI WA 16:00:00 TS -20.82 106.42 100 937 bom 770 767 P_____O__PP_P_ SH301978 -20.87 106.37 113 4 -20.70 106.50 40 100 937 6.00 -20.76 106.51 TC 108 936 -20.88 106.39 4 111 -20.87 106.37 TC 113 936 7 231
1978 SI WA 18:00:00 TS -20.97 106.24 784 784 O_____P__OP_O_ jtwc_sh SH301978 -21.00 106.20 115 4 -20.90 106.29 40 103 934 -20.90 106.30 TC 110 934 -21.01 106.22 4 112 -21.00 106.20 TC 115 934 7 228
1978 SI WA 19:00:00 TS -21.04 106.16 105 934 bom 784 784 P_____O__PP_P_ SH301978 -21.07 106.12 115 4 -21.00 106.20 40 105 934 6.00 -20.97 106.21 TC 110 933 -21.08 106.15 4 112 -21.07 106.13 TC 115 933 6 223
1978 SI WA 21:00:00 TS -21.18 106.03 799 799 P_____P__PP_P_ SH301978 -21.21 106.00 115 4 -21.14 106.05 40 108 932 -21.11 106.05 TC 112 932 -21.21 106.02 4 113 -21.21 106.01 TC 117 932 5 219
1978 SI WA 22:00:00 TS -21.25 105.98 110 932 bom 799 796 P_____O__PP_P_ SH301978 -21.27 105.96 115 4 -21.20 106.00 40 110 932 6.50 -21.17 105.99 TC 113 931 -21.28 105.97 4 114 -21.27 105.97 TC 118 931 4 210
1978 SI WA 1978-04-02 00:00:00 TS -21.37 105.90 804 804 O_____P__OO_O_ jtwc_sh SH301978 -21.40 105.90 115 4 -21.34 105.93 40 110 930 -21.30 105.90 TC 115 930 -21.40 105.90 4 115 -21.40 105.90 TC 120 930 4 208
1978 SI WA 01:00:00 TS -21.43 105.88 110 930 bom 804 802 P_____O__PP_P_ SH301978 -21.46 105.88 115 4 -21.40 105.90 40 110 930 6.50 6.50 -21.36 105.86 TC 114 930 -21.44 105.87 4 115 -21.46 105.86 TC 120 930 3 206
1978 SI WA 03:00:00 TS -21.52 105.84 812 810 P_____P__PP_P_ SH301978 -21.56 105.87 115 4 -21.46 105.83 40 110 930 -21.46 105.80 TC 112 931 -21.52 105.84 4 115 -21.56 105.81 TC 120 931 3 198
1978 SI WA 04:00:00 TS -21.56 105.83 110 931 bom 810 809 P_____O__PP_P_ SH301978 -21.61 105.88 115 4 -21.50 105.80 40 110 931 6.50 -21.51 105.79 TC 111 931 -21.56 105.84 4 115 -21.61 105.80 TC 120 931 3 0
1978 SI WA 06:00:00 TS -21.66 105.84 809 799 O_____P__OP_O_ jtwc_sh SH301978 -21.70 105.90 115 4 -21.64 105.79 40 110 931 -21.60 105.80 TC 110 932 -21.64 105.85 4 115 -21.70 105.80 TC 120 932 3 0
1978 SI WA 07:00:00 TS -21.71 105.85 110 932 bom 799 797 P_____O__PP_P_ SH301978 -21.74 105.91 115 4 -21.70 105.80 40 110 932 6.50 -21.64 105.82 TC 110 932 -21.68 105.87 4 115 -21.74 105.82 TC 119 932 3 156
1978 SI WA 09:00:00 TS -21.79 105.90 797 797 P_____P__PP_P_ SH301978 -21.83 105.94 115 4 -21.76 105.86 40 110 932 -21.73 105.88 TC 110 933 -21.79 105.91 4 115 -21.83 105.88 TC 117 933 3 154
1978 SI WA 10:00:00 TS -21.84 105.93 110 933 bom 797 784 P_____O__PP_P_ SH301978 -21.88 105.95 115 4 -21.80 105.90 40 110 933 6.50 -21.78 105.92 TC 110 933 -21.85 105.94 4 115 -21.88 105.92 TC 116 933 4 154
1978 SI WA 12:00:00 TS -21.97 105.99 784 784 O_____P__OO_O_ jtwc_sh SH301978 -22.00 106.00 115 4 -21.93 105.97 40 106 934 -21.90 106.00 TC 110 935 -22.00 106.00 4 115 -22.00 106.00 TC 115 935 4 156
1978 SI WA 13:00:00 TS -22.05 106.02 105 935 bom 784 771 P_____O__PP_P_ SH301978 -22.07 106.03 115 4 -22.00 106.00 40 105 935 6.50 -21.97 106.03 TC 109 935 -22.09 106.02 4 114 -22.07 106.03 TC 115 935 5 159
1978 SI WA 15:00:00 TS -22.22 106.09 771 771 P_____P__PP_P_ SH301978 -22.25 106.09 115 4 -22.12 106.07 40 101 935 -22.15 106.10 TC 107 936 -22.29 106.06 4 113 -22.25 106.10 TC 115 936 6 161
1978 SI WA 16:00:00 TS -22.32 106.12 100 936 bom 771 759 P_____O__PP_P_ SH301978 -22.35 106.13 115 4 -22.20 106.10 40 100 936 6.00 -22.26 106.13 TC 106 936 -22.40 106.08 4 113 -22.35 106.13 TC 115 936 7 166
1978 SI WA 18:00:00 TS -22.57 106.18 759 757 O_____P__OP_O_ jtwc_sh SH301978 -22.60 106.20 115 4 -22.45 106.17 40 100 936 -22.50 106.20 TC 105 937 -22.65 106.14 4 112 -22.60 106.20 TC 115 937 8 167
1978 SI WA 19:00:00 TS -22.71 106.22 100 937 bom 757 739 P_____O__PP_P_ SH301978 -22.74 106.23 114 4 -22.60 106.20 40 100 937 6.00 -22.63 106.23 TC 105 937 -22.79 106.17 4 112 -22.74 106.23 TC 114 937 9 168
1978 SI WA 21:00:00 TS -23.02 106.28 739 734 P_____P__PP_P_ SH301978 -23.05 106.29 112 3 -22.93 106.27 40 100 937 -22.91 106.30 TC 105 938 -23.09 106.25 4 111 -23.06 106.29 TC 112 938 10 170
1978 SI WA 22:00:00 TS -23.19 106.32 100 938 bom 734 717 P_____O__PP_P_ SH301978 -23.23 106.32 111 3 -23.10 106.30 40 100 938 6.00 -23.07 106.33 TC 105 938 -23.25 106.30 4 110 -23.24 106.33 TC 111 938 11 169
1978 SI WA 1978-04-03 00:00:00 TS -23.54 106.39 717 714 O_____P__OO_O_ jtwc_sh SH301978 -23.60 106.40 110 3 -23.43 106.37 40 100 939 -23.40 106.40 TC 105 940 -23.60 106.40 4 110 -23.60 106.40 TC 110 940 11 168
1978 SI WA 01:00:00 TS -23.71 106.43 100 940 bom 714 700 P_____O__PP_P_ SH301978 -23.78 106.45 109 3 -23.60 106.40 40 100 940 5.50 6.00 -23.56 106.42 TC 104 940 -23.77 106.44 4 109 -23.77 106.44 TC 109 940 11 167
1978 SI WA 03:00:00 TS -24.07 106.52 699 689 P_____P__PP_P_ SH301978 -24.17 106.58 107 3 -23.93 106.46 40 100 941 -23.91 106.47 TC 102 942 -24.13 106.54 4 107 -24.11 106.52 TC 107 942 11 167
1978 SI WA 04:00:00 TS -24.26 106.58 100 942 bom 688 677 P_____O__PP_P_ SH301978 -24.37 106.65 106 3 -24.10 106.50 40 100 942 6.00 -24.10 106.50 TC 101 942 -24.33 106.59 4 106 -24.30 106.57 TC 106 942 13 164
1978 SI WA 06:00:00 TS -24.67 106.71 677 665 O_____P__OP_O_ jtwc_sh SH301978 -24.80 106.80 105 3 -24.49 106.63 40 96 943 -24.50 106.60 TC 100 944 -24.74 106.71 4 105 -24.70 106.70 TC 105 944 13 164
1978 SI WA 07:00:00 TS -24.89 106.78 95 944 bom 665 646 P_____O__PP_P_ SH301978 -25.01 106.87 104 3 -24.70 106.70 40 95 944 6.00 -24.71 106.67 TC 99 944 -24.96 106.79 4 104 -24.93 106.78 TC 104 944 14 163
1978 SI WA 09:00:00 TS -25.35 106.94 646 632 P_____P__PP_P_ SH301978 -25.46 107.01 102 3 -25.15 106.82 40 91 946 -25.17 106.86 TC 97 947 -25.43 106.96 4 102 -25.42 106.96 TC 102 947 15 162
1978 SI WA 10:00:00 TS -25.59 107.03 90 947 bom 632 608 P_____O__PP_P_ SH301978 -25.70 107.10 101 3 -25.40 106.90 40 90 947 5.50 -25.41 106.96 TC 96 947 -25.68 107.06 4 101 -25.68 107.06 TC 101 947 16 159
1978 SI WA 12:00:00 TS -26.11 107.26 598 587 O_____P__OO_O_ jtwc_sh SH301978 -26.20 107.30 100 3 -25.94 107.16 40 90 949 -25.90 107.20 TC 95 950 -26.20 107.30 4 100 -26.20 107.30 TC 100 950 17 158
1978 SI WA 13:00:00 TS -26.35 107.38 90 950 bom 587 568 P_____O__PP_P_ SH301978 -26.46 107.41 99 3 -26.20 107.30 40 90 950 5.50 -26.13 107.31 TC 94 950 -26.45 107.41 4 99 -26.43 107.42 TC 99 950 16 155
1978 SI WA 15:00:00 TS -26.84 107.64 569 553 P_____P__PP_P_ SH301978 -27.00 107.68 97 3 -26.59 107.56 40 90 951 -26.60 107.55 TC 92 952 -26.98 107.66 4 97 -26.90 107.69 TC 97 952 17 154
1978 SI WA 16:00:00 TS -27.11 107.79 90 952 bom 553 534 P_____O__PP_P_ SH301978 -27.29 107.84 96 3 -26.80 107.70 40 90 952 5.50 -26.85 107.68 TC 91 953 -27.26 107.80 4 96 -27.14 107.85 TC 96 953 19 153
1978 SI WA 18:00:00 TS -27.69 108.13 537 525 O_____P__OP_O_ jtwc_sh SH301978 -27.90 108.20 95 2 -27.38 108.02 40 86 954 -27.40 108.00 TC 90 955 -27.84 108.13 4 95 -27.70 108.20 TC 95 955 20 153
1978 SI WA 19:00:00 TS -28.00 108.31 85 955 bom 529 519 P_____O__PP_P_ SH301978 -28.21 108.38 94 2 -27.70 108.20 40 85 955 5.50 -27.72 108.18 TC 89 955 -28.15 108.32 4 94 -28.03 108.39 TC 93 955 22 152
1978 SI WA 21:00:00 TS -28.67 108.73 526 518 P_____P__PP_P_ SH301978 -28.85 108.81 92 2 -28.35 108.58 40 85 956 -28.41 108.59 TC 87 957 -28.81 108.76 4 92 -28.75 108.83 TC 90 957 24 151
1978 SI WA 22:00:00 TS -29.02 108.97 85 957 bom 515 490 P_____O__PP_P_ SH301978 -29.18 109.05 91 2 -28.70 108.80 40 85 957 5.00 -28.78 108.82 TC 86 958 -29.16 109.02 4 91 -29.13 109.07 TC 88 958 26 148
1978 SI WA 1978-04-04 00:00:00 TS -29.77 109.50 494 485 O_____P__OO_O_ jtwc_sh SH301978 -29.90 109.60 90 2 -29.50 109.32 40 85 959 -29.50 109.30 TC 85 960 -29.90 109.60 4 90 -29.90 109.60 TC 85 960 26 147
1978 SI WA 01:00:00 TS -30.13 109.78 85 960 bom 481 457 P_____O__PP_P_ SH301978 -30.26 109.90 89 2 -29.90 109.60 40 85 960 4.50 5.00 -29.81 109.51 TC 83 960 -30.29 109.93 4 88 -30.24 109.85 TC 84 960 27 145
1978 SI WA 03:00:00 TS -30.87 110.39 450 426 P_____P__PP_P_ SH301978 -31.03 110.57 87 2 -30.67 110.14 40 85 961 -30.42 109.95 TC 81 962 -31.12 110.68 4 86 -30.93 110.40 TC 82 962 28 144
1978 SI WA 04:00:00 TS -31.24 110.72 85 962 bom 426 384 P_____O__PP_P_ SH301978 -31.44 110.95 86 2 -31.00 110.40 51 85 962 -30.75 110.22 TC 80 963 -31.55 111.09 4 85 -31.29 110.72 TC 81 963 30 141
1978 SI WA 06:00:00 TS -32.02 111.48 85 bom 372 318 O_____I__IP_O_ jtwc_sh SH301978 -32.30 111.80 85 2 -31.50 110.90 51 85 964 -31.50 110.90 TC 77 965 -32.44 111.97 4 82 -32.10 111.50 TC 80 965 33 140
1978 SI WA 07:00:00 TS -32.50 111.96 80 965 bom 304 204 P_____O__PP_P_ SH301978 -32.76 112.27 83 2 -32.10 111.50 51 80 965 -31.95 111.31 TC 76 965 -32.89 112.44 4 81 -32.57 111.94 TC 79 965 37 140
1978 SI WA 09:00:00 TS -33.43 112.89 195 156 P_____P__PP_P_ SH301978 -33.72 113.31 80 1 -33.04 112.35 51 80 966 -32.96 112.32 TC 73 967 -33.81 113.43 4 78 -33.58 112.97 TC 77 967 36 140
1978 SI WA 10:00:00 TS -33.88 113.36 80 967 bom 147 70 P_____O__PP_P_ SH301978 -34.21 113.86 78 1 -33.50 112.80 51 80 967 -33.50 112.92 TC 72 968 -34.27 113.94 4 77 -34.12 113.58 TC 76 968 41 136
1978 SI WA 12:00:00 TS -34.89 114.59 72 72 O_____P__OO_O_ jtwc_sh SH301978 -35.20 115.00 75 1 -34.64 114.17 51 69 969 -34.60 114.30 TC 70 970 -35.20 115.00 4 75 -35.20 115.00 TC 75 970 43 133
1978 SI WA 13:00:00 TS -35.34 115.31 65 970 bom 84 84 ______O__P__P_ SH301978 -1 -35.20 115.00 51 65 970 -35.14 115.09 TC 66 973 4 -35.69 115.83 TC 70 973 51 125
1978 SI WA 15:00:00 TS -36.34 117.14 134 134 ______P__P__P_ SH301978 -1 -36.13 116.83 51 58 975 -36.19 116.82 TC 60 979 4 -36.67 117.70 TC 62 979 55 123
1978 SI WA 16:00:00 TS -36.85 118.15 55 978 bom 189 189 ______O__P__P_ SH301978 -1 -36.60 117.80 51 55 978 -36.71 117.75 TC 56 982 4 -37.16 118.70 TC 58 982 57 123
1978 SI WA 18:00:00 TS -37.90 120.16 368 368 ______P__O__O_ -1 -37.64 119.74 51 48 985 -37.70 119.70 TC 50 989 4 -38.20 120.70 TC 50 989 59 124
1978 SI WA 19:00:00 TS -38.52 121.25 45 989 bom 476 476 ______O_____P_ -1 -38.20 120.70 51 45 989 TC 4 -38.76 121.67 TC 46 990 59 128
1978 SI WA 21:00:00 TS -39.72 123.15 634 634 ______P_____P_ -1 -39.39 122.57 51 41 996 TC 4 -39.94 123.53 TC 40 994 58 130
1978 SI WA 22:00:00 TS -40.37 124.13 40 1000 bom 717 717 ______O_____P_ -1 -40.00 123.50 51 40 1000 TC 4 -40.56 124.45 TC 36 996 63 131
1978 SI WA 1978-04-05 00:00:00 TS -41.80 126.30 909 ____________O_ -1 51 -41.80 126.30 TC 30 1000 65 131